Time;durP1;ratioP1;P1;durP2;ratioP2;P2;SDS_P1;SDS_P2;PMS_P1;PMS_P2;Temp;Humidity;BMP_temperature;BMP_pressure;BME280_temperature;BME280_humidity;BME280_pressure;Samples;Min_cycle;Max_cycle;Signal;HPM_P1;HPM_P2
2022/01/15 00:02:18;;;;;;;219.45;36.55;;;;;;;;;;5066019;27;95421;-73
2022/01/15 00:04:44;;;;;;;172.75;35.65;;;;;;;;;;5056391;27;97205;-73
2022/01/15 00:07:11;;;;;;;227.95;39.50;;;;;;;;;;5059626;27;95343;-73
2022/01/15 00:09:38;;;;;;;218.10;36.25;;;;;;;;;;5068734;27;96047;-73
2022/01/15 00:12:06;;;;;;;254.85;36.58;;;;;;;;;;5073174;27;97380;-73
2022/01/15 00:14:38;;;;;;;244.07;36.10;;;;;;;;;;5072692;27;95227;-73
2022/01/15 00:17:07;;;;;;;213.93;37.40;;;;;;;;;;5053597;27;96964;-73
2022/01/15 00:19:41;;;;;;;236.35;36.58;;;;;;;;;;5062694;27;97318;-73
2022/01/15 00:22:09;;;;;;;193.25;35.83;;;;;;;;;;5073209;27;96097;-73
2022/01/15 00:24:35;;;;;;;159.20;33.45;;;;;;;;;;5058293;27;96769;-73
2022/01/15 00:27:02;;;;;;;240.02;34.28;;;;;;;;;;5062202;27;97426;-73
2022/01/15 00:29:30;;;;;;;197.02;34.92;;;;;;;;;;5072955;27;96580;-73
2022/01/15 00:31:56;;;;;;;239.13;35.72;;;;;;;;;;5072583;27;97700;-72
2022/01/15 00:34:22;;;;;;;209.07;34.72;;;;;;;;;;5072879;27;95307;-72
2022/01/15 00:36:49;;;;;;;237.98;33.55;;;;;;;;;;5067684;27;97029;-73
2022/01/15 00:39:15;;;;;;;182.65;32.97;;;;;;;;;;5052170;27;97103;-72
2022/01/15 00:41:41;;;;;;;169.10;33.45;;;;;;;;;;5052382;27;95279;-72
2022/01/15 00:44:08;;;;;;;182.90;32.90;;;;;;;;;;5052203;27;97225;-73
2022/01/15 00:46:34;;;;;;;219.35;35.17;;;;;;;;;;5052356;27;97248;-73
2022/01/15 00:49:01;;;;;;;221.77;34.15;;;;;;;;;;5056426;27;95098;-72
2022/01/15 00:51:27;;;;;;;206.82;35.00;;;;;;;;;;5050824;27;97365;-73
2022/01/15 00:53:53;;;;;;;229.80;34.20;;;;;;;;;;5052064;27;95328;-73
2022/01/15 00:56:20;;;;;;;235.02;35.65;;;;;;;;;;5052262;27;97006;-73
2022/01/15 00:58:46;;;;;;;154.82;31.73;;;;;;;;;;5050764;27;97286;-72
2022/01/15 01:01:13;;;;;;;204.65;33.85;;;;;;;;;;5051743;27;95264;-73
2022/01/15 01:03:39;;;;;;;236.30;35.03;;;;;;;;;;5066254;27;96798;-72
2022/01/15 01:06:06;;;;;;;242.88;35.85;;;;;;;;;;5072122;27;97365;-72
2022/01/15 01:08:32;;;;;;;229.65;36.42;;;;;;;;;;5058264;27;95396;-72
2022/01/15 01:11:00;;;;;;;269.23;33.88;;;;;;;;;;5053985;27;96753;-72
2022/01/15 01:20:02;;;;;;;251.43;33.90;;;;;;;;;;5054112;27;95344;-73
2022/01/15 01:22:47;;;;;;;182.85;30.25;;;;;;;;;;5076044;27;95156;-73
2022/01/15 01:24:46;;;;;;;154.75;29.42;;;;;;;;;;5075175;27;96636;-72
2022/01/15 01:27:20;;;;;;;177.40;31.20;;;;;;;;;;5075100;27;97236;-73
2022/01/15 01:30:04;;;;;;;163.93;29.05;;;;;;;;;;5057504;27;95136;-73
2022/01/15 01:32:45;;;;;;;233.70;29.02;;;;;;;;;;5057964;27;96852;-73
2022/01/15 01:35:17;;;;;;;124.95;26.25;;;;;;;;;;5054693;27;95088;-73
2022/01/15 01:37:49;;;;;;;220.63;28.58;;;;;;;;;;5056243;27;97362;-73
2022/01/15 01:40:23;;;;;;;193.80;26.30;;;;;;;;;;5072647;27;97260;-73
2022/01/15 01:43:02;;;;;;;191.95;29.45;;;;;;;;;;5075726;27;95183;-73
2022/01/15 01:45:29;;;;;;;164.13;27.08;;;;;;;;;;5075846;27;96941;-72
2022/01/15 01:47:55;;;;;;;160.40;24.95;;;;;;;;;;5074839;27;97704;-72
2022/01/15 01:50:23;;;;;;;150.98;26.35;;;;;;;;;;5069103;27;95132;-73
2022/01/15 01:52:51;;;;;;;182.50;24.77;;;;;;;;;;5055106;27;96763;-73
2022/01/15 01:55:19;;;;;;;165.05;25.15;;;;;;;;;;5070516;27;97244;-73
2022/01/15 01:57:45;;;;;;;160.63;24.92;;;;;;;;;;5075667;27;96661;-73
2022/01/15 02:00:12;;;;;;;132.63;23.48;;;;;;;;;;5056998;27;97329;-73
2022/01/15 02:02:39;;;;;;;173.88;25.00;;;;;;;;;;5062292;27;96596;-73
2022/01/15 02:05:06;;;;;;;147.23;22.50;;;;;;;;;;5055150;27;96957;-73
2022/01/15 02:07:32;;;;;;;140.30;22.65;;;;;;;;;;5055736;27;97235;-73
2022/01/15 02:09:59;;;;;;;123.63;22.02;;;;;;;;;;5067285;27;95281;-73
2022/01/15 02:12:25;;;;;;;142.27;23.00;;;;;;;;;;5074635;27;96758;-73
2022/01/15 02:14:51;;;;;;;141.75;21.17;;;;;;;;;;5075125;27;97254;-73
2022/01/15 02:17:19;;;;;;;118.80;21.52;;;;;;;;;;5073743;27;95729;-73
2022/01/15 02:25:17;;;;;;;114.10;22.08;;;;;;;;;;5074055;27;97369;-74
2022/01/15 02:27:44;;;;;;;101.18;19.48;;;;;;;;;;5060742;27;97123;-74
2022/01/15 02:30:11;;;;;;;91.72;18.02;;;;;;;;;;5065877;27;95294;-74
2022/01/15 02:32:37;;;;;;;114.30;19.35;;;;;;;;;;5074845;27;96590;-74
2022/01/15 02:35:04;;;;;;;94.15;19.55;;;;;;;;;;5074838;27;96096;-74
2022/01/15 02:37:30;;;;;;;87.00;18.80;;;;;;;;;;5071282;27;95504;-74
2022/01/15 02:39:57;;;;;;;111.80;19.13;;;;;;;;;;5057637;27;95798;-74
2022/01/15 02:42:27;;;;;;;110.53;20.02;;;;;;;;;;5054048;27;95304;-74
2022/01/15 02:44:59;;;;;;;122.72;20.25;;;;;;;;;;5053921;27;96051;-74
2022/01/15 02:50:11;;;;;;;122.85;19.52;;;;;;;;;;5074124;27;95181;-74
2022/01/15 02:52:37;;;;;;;128.68;21.20;;;;;;;;;;5074049;27;96728;-74
2022/01/15 02:55:03;;;;;;;138.10;20.77;;;;;;;;;;5073650;27;97600;-74
2022/01/15 02:57:30;;;;;;;162.45;21.05;;;;;;;;;;5073691;27;95357;-74
2022/01/15 02:59:56;;;;;;;182.90;21.80;;;;;;;;;;5055278;27;96858;-74
2022/01/15 03:02:23;;;;;;;150.23;20.35;;;;;;;;;;5056641;27;97348;-74
2022/01/15 03:04:49;;;;;;;146.40;21.27;;;;;;;;;;5053966;27;96866;-74
2022/01/15 03:07:15;;;;;;;160.88;21.75;;;;;;;;;;5053669;27;97288;-74
2022/01/15 03:09:41;;;;;;;146.85;20.30;;;;;;;;;;5068307;27;95335;-74
2022/01/15 03:12:08;;;;;;;130.13;19.33;;;;;;;;;;5073471;27;96784;-75
2022/01/15 03:14:34;;;;;;;149.25;20.75;;;;;;;;;;5074112;27;97354;-74
2022/01/15 03:17:01;;;;;;;135.25;20.77;;;;;;;;;;5074728;27;95321;-74
2022/01/15 03:19:39;;;;;;;152.77;20.55;;;;;;;;;;5058560;27;96787;-74
2022/01/15 03:22:06;;;;;;;143.18;18.85;;;;;;;;;;5053448;27;96358;-74
2022/01/15 03:24:32;;;;;;;151.85;18.98;;;;;;;;;;5056368;27;95347;-74
2022/01/15 03:26:58;;;;;;;139.95;18.75;;;;;;;;;;5052598;27;96634;-74
2022/01/15 03:29:25;;;;;;;129.30;18.20;;;;;;;;;;5063142;27;97027;-74
2022/01/15 03:31:51;;;;;;;170.13;20.40;;;;;;;;;;5074023;27;96719;-74
2022/01/15 03:34:18;;;;;;;143.38;18.83;;;;;;;;;;5072348;27;97087;-74
2022/01/15 03:36:44;;;;;;;150.90;19.98;;;;;;;;;;5073686;27;95976;-74
2022/01/15 03:39:10;;;;;;;153.93;20.30;;;;;;;;;;5064498;27;96833;-74
2022/01/15 03:41:36;;;;;;;140.13;19.35;;;;;;;;;;5052559;27;97187;-73
2022/01/15 03:44:03;;;;;;;123.97;17.65;;;;;;;;;;5056602;27;95436;-74
2022/01/15 03:46:30;;;;;;;119.50;19.00;;;;;;;;;;5052689;27;96101;-74
2022/01/15 03:48:56;;;;;;;98.68;14.70;;;;;;;;;;5058237;27;95319;-73
2022/01/15 03:51:23;;;;;;;96.85;16.40;;;;;;;;;;5072670;27;96604;-73
2022/01/15 03:53:49;;;;;;;89.68;14.98;;;;;;;;;;5072914;27;97412;-73
2022/01/15 03:56:15;;;;;;;105.50;16.45;;;;;;;;;;5072522;27;95173;-73
2022/01/15 03:58:42;;;;;;;94.40;16.25;;;;;;;;;;5072960;27;96807;-74
2022/01/15 04:01:08;;;;;;;106.47;17.17;;;;;;;;;;5059284;27;97504;-74
2022/01/15 04:03:35;;;;;;;108.85;15.75;;;;;;;;;;5073786;27;95172;-74
2022/01/15 04:06:01;;;;;;;108.55;15.80;;;;;;;;;;5076662;27;97154;-74
2022/01/15 04:08:27;;;;;;;106.40;17.00;;;;;;;;;;5072669;27;95310;-74
2022/01/15 04:10:54;;;;;;;112.15;18.00;;;;;;;;;;5056345;27;97530;-74
2022/01/15 04:13:20;;;;;;;110.88;17.55;;;;;;;;;;5067442;27;96725;-73
2022/01/15 04:15:52;;;;;;;130.13;18.02;;;;;;;;;;5052555;27;95122;-73
2022/01/15 04:18:20;;;;;;;108.05;17.30;;;;;;;;;;5052611;27;96726;-74
2022/01/15 04:20:47;;;;;;;92.97;16.95;;;;;;;;;;5069252;27;96159;-73
2022/01/15 04:23:13;;;;;;;84.80;15.52;;;;;;;;;;5072302;27;95482;-74
2022/01/15 04:25:40;;;;;;;94.82;15.90;;;;;;;;;;5072615;27;96695;-74
2022/01/15 04:28:11;;;;;;;102.38;15.35;;;;;;;;;;5076282;27;97644;-73
2022/01/15 04:30:40;;;;;;;86.82;15.15;;;;;;;;;;5070994;27;96790;-73
2022/01/15 04:33:07;;;;;;;108.38;15.30;;;;;;;;;;5072846;27;97258;-73
2022/01/15 04:35:33;;;;;;;121.22;17.65;;;;;;;;;;5072640;27;95385;-73
2022/01/15 04:38:07;;;;;;;113.78;16.15;;;;;;;;;;5072656;27;96339;-73
2022/01/15 04:40:33;;;;;;;93.07;16.63;;;;;;;;;;5061543;27;97328;-73
2022/01/15 04:43:00;;;;;;;92.20;15.57;;;;;;;;;;5052063;27;95219;-73
2022/01/15 04:45:26;;;;;;;68.25;13.95;;;;;;;;;;5052087;27;97027;-73
2022/01/15 04:47:53;;;;;;;51.80;13.77;;;;;;;;;;5052312;27;97097;-73
2022/01/15 04:50:20;;;;;;;67.60;14.25;;;;;;;;;;5061663;27;95425;-74
2022/01/15 04:52:46;;;;;;;64.25;13.85;;;;;;;;;;5072554;27;97599;-73
2022/01/15 04:55:13;;;;;;;67.40;14.95;;;;;;;;;;5072452;27;96095;-73
2022/01/15 04:57:40;;;;;;;66.03;13.20;;;;;;;;;;5072673;27;96571;-73
2022/01/15 05:00:08;;;;;;;59.85;14.20;;;;;;;;;;5066860;27;97259;-73
2022/01/15 05:02:35;;;;;;;62.55;13.98;;;;;;;;;;5052330;27;95134;-73
2022/01/15 05:05:01;;;;;;;60.70;13.88;;;;;;;;;;5051943;27;96859;-73
2022/01/15 05:07:27;;;;;;;57.63;14.23;;;;;;;;;;5051903;27;97573;-73
2022/01/15 05:09:54;;;;;;;57.85;13.95;;;;;;;;;;5053116;27;95470;-73
2022/01/15 05:12:27;;;;;;;67.18;15.57;;;;;;;;;;5074573;27;96682;-74
2022/01/15 05:14:54;;;;;;;72.32;16.00;;;;;;;;;;5071672;27;95369;-73
2022/01/15 05:17:20;;;;;;;78.53;17.80;;;;;;;;;;5072409;27;96872;-74
2022/01/15 05:19:46;;;;;;;74.80;17.73;;;;;;;;;;5071287;27;96401;-73
2022/01/15 05:22:13;;;;;;;81.90;17.85;;;;;;;;;;5051770;27;96087;-74
2022/01/15 05:24:39;;;;;;;88.53;17.33;;;;;;;;;;5051700;27;95621;-73
2022/01/15 05:27:06;;;;;;;110.68;21.50;;;;;;;;;;5051062;27;96599;-73
2022/01/15 05:29:33;;;;;;;117.80;20.40;;;;;;;;;;5051921;27;96259;-73
2022/01/15 05:31:59;;;;;;;114.47;20.70;;;;;;;;;;5059171;27;95795;-73
2022/01/15 05:34:31;;;;;;;117.13;20.83;;;;;;;;;;5072708;27;95211;-73
2022/01/15 05:36:58;;;;;;;103.68;21.38;;;;;;;;;;5072374;27;96815;-73
2022/01/15 05:39:24;;;;;;;105.72;21.42;;;;;;;;;;5070482;27;97560;-73
2022/01/15 05:41:50;;;;;;;134.45;21.85;;;;;;;;;;5071919;27;95380;-73
2022/01/15 05:44:20;;;;;;;103.28;22.50;;;;;;;;;;5072172;27;96597;-74
2022/01/15 05:46:49;;;;;;;122.57;23.75;;;;;;;;;;5061844;27;96585;-73
2022/01/15 05:49:16;;;;;;;133.90;22.92;;;;;;;;;;5072021;27;95303;-74
2022/01/15 05:51:42;;;;;;;136.60;25.05;;;;;;;;;;5064470;27;97121;-74
2022/01/15 05:54:10;;;;;;;135.52;25.73;;;;;;;;;;5064777;27;97321;-74
2022/01/15 05:56:37;;;;;;;141.13;25.52;;;;;;;;;;5054387;27;96729;-73
2022/01/15 05:59:03;;;;;;;149.20;26.95;;;;;;;;;;5054751;27;97301;-73
2022/01/15 06:01:30;;;;;;;166.52;28.23;;;;;;;;;;5065516;27;95271;-73
2022/01/15 06:03:57;;;;;;;126.25;28.30;;;;;;;;;;5067010;27;96975;-73
2022/01/15 06:06:23;;;;;;;149.98;27.67;;;;;;;;;;5054296;27;97405;-73
2022/01/15 06:08:49;;;;;;;147.63;27.95;;;;;;;;;;5062122;27;95486;-73
2022/01/15 06:11:19;;;;;;;153.88;29.80;;;;;;;;;;5063946;27;96850;-73
2022/01/15 06:13:46;;;;;;;182.77;30.45;;;;;;;;;;5058010;27;97638;-74
2022/01/15 06:16:12;;;;;;;124.13;26.13;;;;;;;;;;5068449;27;97320;-73
2022/01/15 06:18:39;;;;;;;127.18;28.02;;;;;;;;;;5059200;27;97650;-73
2022/01/15 06:21:06;;;;;;;141.50;26.63;;;;;;;;;;5070627;27;95424;-74
2022/01/15 06:23:32;;;;;;;123.45;27.35;;;;;;;;;;5054104;27;97123;-74
2022/01/15 06:25:59;;;;;;;134.88;26.52;;;;;;;;;;5058096;27;97420;-73
2022/01/15 06:28:25;;;;;;;142.32;27.92;;;;;;;;;;5074411;27;95314;-74
2022/01/15 06:30:52;;;;;;;142.30;29.60;;;;;;;;;;5074548;27;96832;-73
2022/01/15 06:33:20;;;;;;;170.23;30.02;;;;;;;;;;5071099;27;96148;-74
2022/01/15 06:35:47;;;;;;;173.95;27.40;;;;;;;;;;5057046;27;95220;-74
2022/01/15 06:38:13;;;;;;;165.30;28.35;;;;;;;;;;5077483;27;96794;-74
2022/01/15 06:40:40;;;;;;;173.25;27.45;;;;;;;;;;5066376;27;95281;-74
2022/01/15 06:43:06;;;;;;;135.55;26.85;;;;;;;;;;5053828;27;96666;-74
2022/01/15 06:45:33;;;;;;;162.93;26.40;;;;;;;;;;5054267;27;97366;-74
2022/01/15 06:48:00;;;;;;;191.85;28.05;;;;;;;;;;5074345;27;95461;-73
2022/01/15 06:50:28;;;;;;;164.35;25.42;;;;;;;;;;5069030;27;96981;-73
2022/01/15 06:52:55;;;;;;;163.38;25.30;;;;;;;;;;5053902;27;97274;-73
2022/01/15 06:55:21;;;;;;;183.63;27.98;;;;;;;;;;5053735;27;95158;-74
2022/01/15 06:57:48;;;;;;;142.40;25.33;;;;;;;;;;5053703;27;96904;-73
2022/01/15 07:00:14;;;;;;;185.73;23.98;;;;;;;;;;5057608;27;97520;-73
2022/01/15 07:02:41;;;;;;;143.30;23.38;;;;;;;;;;5060094;27;97350;-73
2022/01/15 07:05:08;;;;;;;163.18;23.73;;;;;;;;;;5062418;27;97449;-74
2022/01/15 07:07:39;;;;;;;449.50;40.17;;;;;;;;;;5062991;27;96151;-74
2022/01/15 07:10:07;;;;;;;157.30;22.42;;;;;;;;;;5053976;27;97149;-73
2022/01/15 07:12:34;;;;;;;165.25;23.40;;;;;;;;;;5066679;27;97561;-73
2022/01/15 07:15:00;;;;;;;141.00;22.83;;;;;;;;;;5073305;27;95160;-73
2022/01/15 07:17:26;;;;;;;238.65;24.48;;;;;;;;;;5073066;27;96844;-73
2022/01/15 07:19:53;;;;;;;250.02;27.15;;;;;;;;;;5073393;27;97284;-73
2022/01/15 07:22:19;;;;;;;246.23;26.88;;;;;;;;;;5064118;27;95430;-73
2022/01/15 07:24:45;;;;;;;296.50;25.98;;;;;;;;;;5053097;27;97682;-73
2022/01/15 07:27:12;;;;;;;256.40;26.40;;;;;;;;;;5053278;27;95262;-73
2022/01/15 07:29:39;;;;;;;241.48;26.00;;;;;;;;;;5053687;27;97109;-73
2022/01/15 07:32:06;;;;;;;312.42;28.05;;;;;;;;;;5069670;27;97743;-73
2022/01/15 07:34:32;;;;;;;210.93;27.00;;;;;;;;;;5073675;27;95278;-73
2022/01/15 07:36:59;;;;;;;250.60;27.40;;;;;;;;;;5072980;27;97130;-73
2022/01/15 07:39:26;;;;;;;251.40;26.77;;;;;;;;;;5072600;27;97405;-73
2022/01/15 07:41:54;;;;;;;305.23;28.75;;;;;;;;;;5071517;27;95417;-73
2022/01/15 07:44:20;;;;;;;266.02;27.20;;;;;;;;;;5052786;27;97537;-73
2022/01/15 07:46:47;;;;;;;248.57;28.13;;;;;;;;;;5070995;27;96508;-73
2022/01/15 07:49:13;;;;;;;164.88;25.55;;;;;;;;;;5072041;27;96777;-73
2022/01/15 07:51:40;;;;;;;320.65;28.63;;;;;;;;;;5072552;27;97603;-73
2022/01/15 07:54:06;;;;;;;219.05;26.48;;;;;;;;;;5073431;27;95243;-73
2022/01/15 07:56:32;;;;;;;294.77;28.27;;;;;;;;;;5069461;27;96896;-73
2022/01/15 17:30:49;;;;;;;107.80;30.15;;;;;;;;;;5045612;27;1315385;-80
2022/01/15 17:33:15;;;;;;;124.45;31.08;;;;;;;;;;5077217;27;97345;-80
2022/01/15 17:35:41;;;;;;;119.95;34.63;;;;;;;;;;5077472;27;95275;-81
2022/01/15 17:38:08;;;;;;;124.45;31.85;;;;;;;;;;5059433;27;97094;-80
2022/01/15 17:40:34;;;;;;;124.80;34.05;;;;;;;;;;5061290;27;97462;-80
2022/01/15 17:43:06;;;;;;;127.80;34.80;;;;;;;;;;5059087;27;95308;-80
2022/01/15 17:45:33;;;;;;;116.38;32.60;;;;;;;;;;5056255;27;96827;-80
2022/01/15 17:48:00;;;;;;;107.05;32.13;;;;;;;;;;5059245;27;97627;-80
2022/01/15 17:50:31;;;;;;;100.55;30.20;;;;;;;;;;5064530;27;95237;-78
2022/01/15 17:52:57;;;;;;;97.60;30.98;;;;;;;;;;5067432;27;97112;-77
2022/01/15 17:55:24;;;;;;;105.00;30.50;;;;;;;;;;5041716;27;96317;-78
2022/01/15 17:57:50;;;;;;;108.82;33.45;;;;;;;;;;5055792;27;96755;-77
2022/01/15 18:00:16;;;;;;;103.65;31.42;;;;;;;;;;5054294;27;97526;-76
2022/01/15 18:02:43;;;;;;;115.43;33.35;;;;;;;;;;5061903;27;95636;-77
2022/01/15 18:05:10;;;;;;;102.30;33.58;;;;;;;;;;5062256;27;97324;-77
2022/01/15 18:07:36;;;;;;;94.75;29.23;;;;;;;;;;5041572;27;97178;-76
2022/01/15 18:10:03;;;;;;;86.43;28.38;;;;;;;;;;5058474;27;95320;-76
2022/01/15 18:12:30;;;;;;;97.75;30.80;;;;;;;;;;5063096;27;97698;-76
2022/01/15 18:14:56;;;;;;;86.95;27.67;;;;;;;;;;5063146;27;96262;-76
2022/01/15 18:17:23;;;;;;;91.15;28.02;;;;;;;;;;5070895;27;96844;-77
2022/01/15 18:19:49;;;;;;;96.03;31.10;;;;;;;;;;5056157;27;97617;-77
2022/01/15 18:22:16;;;;;;;90.97;30.40;;;;;;;;;;5057733;27;95475;-79
2022/01/15 18:24:42;;;;;;;98.20;30.58;;;;;;;;;;5041927;27;97134;-79
2022/01/15 18:27:09;;;;;;;113.00;32.90;;;;;;;;;;5062675;27;97307;-78
2022/01/15 18:29:36;;;;;;;100.72;31.55;;;;;;;;;;5063365;27;95359;-77
2022/01/15 18:32:02;;;;;;;103.53;32.13;;;;;;;;;;5062795;27;96848;-76
2022/01/15 18:34:29;;;;;;;109.15;31.45;;;;;;;;;;5061608;27;97277;-76
2022/01/15 18:36:56;;;;;;;94.72;30.95;;;;;;;;;;5062402;27;96678;-77
2022/01/15 18:39:22;;;;;;;98.47;32.75;;;;;;;;;;5063635;27;97393;-80
2022/01/15 18:41:48;;;;;;;102.82;32.25;;;;;;;;;;5053640;27;95393;-80
2022/01/15 18:44:15;;;;;;;111.85;33.47;;;;;;;;;;5047756;27;96388;-81
2022/01/15 18:46:41;;;;;;;108.28;31.20;;;;;;;;;;5053872;27;97765;-81
2022/01/15 18:49:07;;;;;;;102.78;30.90;;;;;;;;;;5053190;27;95360;-81
2022/01/15 18:51:34;;;;;;;99.53;31.38;;;;;;;;;;5051376;27;97207;-81
2022/01/15 18:54:00;;;;;;;96.90;29.48;;;;;;;;;;5041608;27;97303;-81
2022/01/15 18:56:27;;;;;;;106.80;29.95;;;;;;;;;;5043305;27;95420;-80
2022/01/15 18:58:53;;;;;;;103.93;30.70;;;;;;;;;;5053575;27;96235;-81
2022/01/15 19:01:20;;;;;;;106.88;29.90;;;;;;;;;;5045283;27;95417;-80
2022/01/15 19:03:46;;;;;;;114.22;32.10;;;;;;;;;;5042804;27;96659;-80
2022/01/15 19:06:13;;;;;;;108.63;31.92;;;;;;;;;;5041991;27;97369;-80
2022/01/15 19:08:39;;;;;;;100.72;31.38;;;;;;;;;;5024014;27;95500;-78
2022/01/15 19:11:06;;;;;;;95.93;29.10;;;;;;;;;;5051556;27;96983;-80
2022/01/15 19:13:32;;;;;;;95.18;27.90;;;;;;;;;;5044081;27;96170;-80
2022/01/15 19:15:58;;;;;;;100.05;28.90;;;;;;;;;;5041014;27;96193;-80
2022/01/15 19:18:25;;;;;;;105.07;30.00;;;;;;;;;;5043973;27;96788;-80
2022/01/15 19:20:51;;;;;;;101.03;29.75;;;;;;;;;;5034596;27;95401;-81
2022/01/15 19:23:18;;;;;;;113.40;31.05;;;;;;;;;;5051719;27;96735;-80
2022/01/15 19:25:44;;;;;;;123.90;30.65;;;;;;;;;;5044552;27;97392;-79
2022/01/15 19:28:11;;;;;;;110.75;31.70;;;;;;;;;;5046465;27;95128;-79
2022/01/15 19:30:38;;;;;;;120.00;32.22;;;;;;;;;;5055049;27;96691;-80
2022/01/15 19:33:06;;;;;;;125.53;32.50;;;;;;;;;;5045173;27;97855;-75
2022/01/15 19:35:32;;;;;;;127.88;35.40;;;;;;;;;;5037486;27;96647;-76
2022/01/15 19:38:03;;;;;;;116.30;32.00;;;;;;;;;;5053001;27;96786;-75
2022/01/15 19:40:29;;;;;;;117.03;30.90;;;;;;;;;;5057183;27;95941;-76
2022/01/15 19:42:56;;;;;;;126.38;31.27;;;;;;;;;;5061124;27;96973;-75
2022/01/15 19:45:22;;;;;;;119.88;32.28;;;;;;;;;;5052970;27;100482;-76
2022/01/15 19:47:50;;;;;;;106.47;31.83;;;;;;;;;;5038491;27;95418;-76
2022/01/15 19:50:17;;;;;;;116.68;33.60;;;;;;;;;;5031865;27;96775;-77
2022/01/15 19:52:50;;;;;;;107.07;30.15;;;;;;;;;;5051028;27;97732;-76
2022/01/15 19:55:17;;;;;;;114.18;32.47;;;;;;;;;;5015746;28;95644;-76
2022/01/15 19:57:44;;;;;;;107.25;31.33;;;;;;;;;;5046013;27;97000;-77
2022/01/15 20:00:11;;;;;;;112.00;30.67;;;;;;;;;;5055417;27;97417;-77
2022/01/15 20:02:38;;;;;;;102.22;30.83;;;;;;;;;;5040747;27;97305;-77
2022/01/15 20:05:05;;;;;;;114.60;31.40;;;;;;;;;;5046345;27;97395;-76
2022/01/15 20:07:32;;;;;;;115.53;31.15;;;;;;;;;;5036728;27;95304;-76
2022/01/15 20:09:58;;;;;;;124.82;32.22;;;;;;;;;;5055057;27;96845;-76
2022/01/15 20:12:25;;;;;;;122.30;31.10;;;;;;;;;;5040003;27;97334;-77
2022/01/15 20:14:51;;;;;;;117.63;31.73;;;;;;;;;;5033400;27;95205;-77
2022/01/15 20:17:17;;;;;;;126.45;32.80;;;;;;;;;;5032814;28;96839;-77
2022/01/15 20:19:44;;;;;;;123.22;32.70;;;;;;;;;;5032293;28;97586;-75
2022/01/15 20:22:10;;;;;;;144.02;35.85;;;;;;;;;;5046198;27;95106;-76
2022/01/15 20:24:37;;;;;;;127.85;32.90;;;;;;;;;;5039352;27;97466;-76
2022/01/15 20:27:03;;;;;;;130.48;31.40;;;;;;;;;;5033018;28;95031;-76
2022/01/15 20:29:30;;;;;;;130.32;31.08;;;;;;;;;;5021589;27;96888;-77
2022/01/15 20:31:56;;;;;;;128.95;31.27;;;;;;;;;;5040194;27;97281;-77
2022/01/15 20:34:24;;;;;;;127.05;32.40;;;;;;;;;;5073154;27;95246;-76
2022/01/15 20:36:52;;;;;;;144.25;33.55;;;;;;;;;;5073758;27;97048;-74
2022/01/15 20:39:20;;;;;;;123.82;30.88;;;;;;;;;;5057468;27;97322;-76
2022/01/15 20:41:47;;;;;;;131.95;32.15;;;;;;;;;;5056729;27;95356;-76
2022/01/15 20:44:13;;;;;;;144.93;34.95;;;;;;;;;;5076224;27;96773;-76
2022/01/15 20:46:39;;;;;;;156.98;34.95;;;;;;;;;;5073095;27;95793;-76
2022/01/15 20:49:06;;;;;;;147.15;32.88;;;;;;;;;;5060431;27;96839;-76
2022/01/15 20:51:32;;;;;;;145.70;34.33;;;;;;;;;;5052391;27;97265;-76
2022/01/15 20:53:59;;;;;;;156.27;32.83;;;;;;;;;;5054009;27;95750;-76
2022/01/15 20:56:25;;;;;;;161.43;33.97;;;;;;;;;;5066067;27;96820;-75
2022/01/15 20:58:52;;;;;;;161.63;35.70;;;;;;;;;;5073100;27;97362;-75
2022/01/15 21:01:19;;;;;;;159.95;36.40;;;;;;;;;;5042843;27;95277;-76
2022/01/15 21:03:46;;;;;;;148.43;33.30;;;;;;;;;;5043573;27;96141;-76
2022/01/15 21:06:12;;;;;;;142.95;33.13;;;;;;;;;;5076098;27;97738;-76
2022/01/15 21:08:39;;;;;;;156.70;33.67;;;;;;;;;;5073032;27;97067;-77
2022/01/15 21:11:06;;;;;;;209.65;37.35;;;;;;;;;;5073326;27;96968;-77
2022/01/15 21:13:33;;;;;;;155.57;34.90;;;;;;;;;;5069154;27;94998;-77
2022/01/15 21:15:59;;;;;;;190.02;35.72;;;;;;;;;;5072780;27;96689;-76
2022/01/15 21:18:25;;;;;;;164.88;33.63;;;;;;;;;;5054397;27;96160;-77
2022/01/15 21:20:52;;;;;;;153.90;35.97;;;;;;;;;;5073127;27;95276;-77
2022/01/15 21:23:18;;;;;;;170.30;36.28;;;;;;;;;;5047504;27;96755;-75
2022/01/15 21:25:45;;;;;;;143.48;34.80;;;;;;;;;;5052613;27;97397;-77
2022/01/15 21:28:17;;;;;;;161.73;35.75;;;;;;;;;;5055433;27;95047;-77
2022/01/15 21:30:44;;;;;;;185.25;37.38;;;;;;;;;;5051453;27;97378;-77
2022/01/15 21:33:11;;;;;;;205.13;37.55;;;;;;;;;;5055172;27;95555;-77
2022/01/15 21:35:41;;;;;;;232.88;39.60;;;;;;;;;;5072541;27;97090;-77
2022/01/15 21:38:08;;;;;;;158.75;37.85;;;;;;;;;;5038629;27;97521;-76
2022/01/15 21:40:34;;;;;;;265.90;41.38;;;;;;;;;;5031950;28;95384;-76
2022/01/15 21:43:01;;;;;;;199.40;38.97;;;;;;;;;;5035600;27;96792;-75
2022/01/15 21:45:27;;;;;;;208.13;42.33;;;;;;;;;;5072146;27;97957;-75
2022/01/15 21:47:53;;;;;;;197.68;40.10;;;;;;;;;;5059994;27;95410;-74
2022/01/15 21:50:20;;;;;;;207.13;41.33;;;;;;;;;;5051256;27;97847;-75
2022/01/15 21:52:46;;;;;;;201.25;38.28;;;;;;;;;;5052016;27;95310;-74
2022/01/15 21:55:13;;;;;;;244.02;40.65;;;;;;;;;;5053178;27;96804;-74
2022/01/15 21:57:40;;;;;;;229.63;40.95;;;;;;;;;;5051493;27;97683;-75
2022/01/15 22:00:07;;;;;;;225.48;40.22;;;;;;;;;;5042217;27;95359;-75
2022/01/15 22:02:37;;;;;;;211.40;40.65;;;;;;;;;;5051849;27;97106;-74
2022/01/15 22:05:03;;;;;;;250.10;42.20;;;;;;;;;;5065346;27;97402;-74
2022/01/15 22:07:30;;;;;;;216.20;43.97;;;;;;;;;;5054105;27;95460;-75
2022/01/15 22:09:56;;;;;;;207.00;44.00;;;;;;;;;;5072655;27;97211;-74
2022/01/15 22:12:28;;;;;;;222.98;43.17;;;;;;;;;;5051350;27;95337;-75
2022/01/15 22:14:55;;;;;;;;;;;;;;;;;;5065234;27;95668;-75
2022/01/15 22:17:21;;;;;;;229.25;40.47;;;;;;;;;;5074486;27;126823;-75
2022/01/15 22:19:48;;;;;;;258.23;43.03;;;;;;;;;;5060620;27;95291;-75
2022/01/15 22:22:15;;;;;;;212.93;41.22;;;;;;;;;;5054887;27;96747;-75
2022/01/15 22:24:41;;;;;;;217.43;40.55;;;;;;;;;;5055300;27;100908;-75
2022/01/15 22:27:09;;;;;;;277.70;41.95;;;;;;;;;;5054992;27;95847;-75
2022/01/15 22:29:35;;;;;;;216.02;39.30;;;;;;;;;;5054555;27;97064;-74
2022/01/15 22:32:22;;;;;;;259.38;43.05;;;;;;;;;;5057295;27;99166;-75
2022/01/15 22:34:50;;;;;;;245.40;41.47;;;;;;;;;;5038221;27;96866;-75
2022/01/15 22:37:16;;;;;;;228.00;39.92;;;;;;;;;;5054791;27;97664;-73
2022/01/15 22:39:43;;;;;;;242.07;42.47;;;;;;;;;;5042388;27;95553;-73
2022/01/15 22:42:10;;;;;;;300.67;42.45;;;;;;;;;;5034157;28;96863;-74
2022/01/15 22:44:36;;;;;;;252.23;40.67;;;;;;;;;;5054431;27;97367;-72
2022/01/15 22:47:04;;;;;;;277.67;43.10;;;;;;;;;;5075164;27;95280;-73
2022/01/15 22:49:30;;;;;;;238.25;41.53;;;;;;;;;;5075052;27;96920;-73
2022/01/15 22:51:56;;;;;;;243.57;41.80;;;;;;;;;;5075013;27;97377;-73
2022/01/15 22:54:23;;;;;;;253.80;39.97;;;;;;;;;;5072726;27;95115;-73
2022/01/15 22:56:49;;;;;;;269.60;44.75;;;;;;;;;;5074840;27;97889;-72
2022/01/15 22:59:15;;;;;;;278.27;43.92;;;;;;;;;;5074868;27;95957;-73
2022/01/15 23:01:43;;;;;;;254.68;39.30;;;;;;;;;;5074782;27;97058;-73
2022/01/15 23:04:13;;;;;;;277.60;41.83;;;;;;;;;;5065743;27;97351;-74
2022/01/15 23:06:39;;;;;;;208.52;38.65;;;;;;;;;;5041503;27;95349;-73
2022/01/15 23:09:06;;;;;;;240.63;39.08;;;;;;;;;;5033961;28;96872;-74
2022/01/15 23:11:39;;;;;;;215.13;38.92;;;;;;;;;;5033605;28;97462;-73
2022/01/15 23:14:25;;;;;;;251.82;41.53;;;;;;;;;;5035356;27;95769;-73
2022/01/15 23:16:53;;;;;;;244.70;41.33;;;;;;;;;;5056458;27;96847;-74
2022/01/15 23:19:20;;;;;;;288.48;41.63;;;;;;;;;;5074619;27;95360;-74
2022/01/15 23:21:46;;;;;;;293.40;39.72;;;;;;;;;;5074224;27;96590;-76
2022/01/15 23:24:17;;;;;;;256.58;41.38;;;;;;;;;;5072106;27;97664;-73
2022/01/15 23:26:44;;;;;;;358.20;43.25;;;;;;;;;;5053557;27;95315;-76
2022/01/15 23:29:11;;;;;;;300.95;41.90;;;;;;;;;;5052800;27;97178;-76
2022/01/15 23:31:37;;;;;;;254.48;39.88;;;;;;;;;;5053885;27;97404;-78
2022/01/15 23:34:03;;;;;;;259.60;40.05;;;;;;;;;;5054427;27;95225;-75
2022/01/15 23:36:30;;;;;;;196.15;38.05;;;;;;;;;;5053700;27;97085;-77
2022/01/15 23:38:56;;;;;;;206.68;39.05;;;;;;;;;;5057113;27;97301;-74
2022/01/15 23:41:24;;;;;;;183.77;38.35;;;;;;;;;;5053528;27;96864;-75
2022/01/15 23:43:51;;;;;;;255.93;40.38;;;;;;;;;;5036083;27;97725;-75
2022/01/15 23:46:21;;;;;;;240.23;40.20;;;;;;;;;;5052513;27;95367;-75
2022/01/15 23:48:52;;;;;;;213.88;39.03;;;;;;;;;;5053939;27;96853;-76
2022/01/15 23:51:19;;;;;;;269.98;41.55;;;;;;;;;;5052987;27;97593;-75
2022/01/15 23:53:45;;;;;;;275.35;40.83;;;;;;;;;;5054118;27;94915;-75